Time;durP1;ratioP1;P1;durP2;ratioP2;P2;SDS_P1;SDS_P2;PMS_P1;PMS_P2;Temp;Humidity;BMP_temperature;BMP_pressure;BME280_temperature;BME280_humidity;BME280_pressure;Samples;Min_cycle;Max_cycle;Signal;HPM_P1;HPM_P2
2021/09/03 00:01:08;;;;;;;20.58;17.73;;;;;;;14.35;100.00;102269.16;4903070;30;20499;-67
2021/09/03 00:03:39;;;;;;;24.88;17.85;;;;;;;14.23;100.00;102264.84;4904294;30;20033;-68
2021/09/03 00:06:11;;;;;;;21.90;18.60;;;;;;;14.14;100.00;102265.59;4904267;30;20028;-67
2021/09/03 00:08:42;;;;;;;20.90;17.70;;;;;;;14.16;100.00;102254.91;4903438;30;20068;-68
2021/09/03 00:11:13;;;;;;;21.25;17.73;;;;;;;14.10;100.00;102262.34;4904588;30;20087;-70
2021/09/03 00:13:45;;;;;;;22.67;17.88;;;;;;;14.20;100.00;102269.53;4905094;30;20037;-67
2021/09/03 00:16:18;;;;;;;19.45;17.38;;;;;;;14.11;100.00;102265.81;4904129;30;20127;-68
2021/09/03 00:18:49;;;;;;;21.52;17.70;;;;;;;14.07;100.00;102261.75;4904607;30;20408;-69
2021/09/03 00:21:21;;;;;;;21.83;17.85;;;;;;;14.04;100.00;102260.16;4905296;30;20041;-68
2021/09/03 00:23:52;;;;;;;26.73;18.65;;;;;;;14.16;100.00;102257.53;4903725;30;20408;-68
2021/09/03 00:26:23;;;;;;;21.08;17.33;;;;;;;14.08;100.00;102258.97;4904147;30;20037;-69
2021/09/03 00:28:55;;;;;;;21.70;17.40;;;;;;;13.98;100.00;102251.88;4903494;30;20699;-68
2021/09/03 00:31:26;;;;;;;20.75;17.45;;;;;;;14.01;100.00;102254.28;4905037;30;20068;-68
2021/09/03 00:33:57;;;;;;;24.85;18.42;;;;;;;13.96;100.00;102252.00;4904602;30;20036;-69
2021/09/03 00:36:29;;;;;;;26.08;18.75;;;;;;;14.02;100.00;102248.94;4904137;30;20045;-67
2021/09/03 00:39:00;;;;;;;21.17;17.02;;;;;;;13.96;100.00;102254.66;4901982;30;20033;-67
2021/09/03 00:41:31;;;;;;;18.67;16.63;;;;;;;13.97;100.00;102245.78;4904937;30;20041;-67
2021/09/03 00:44:03;;;;;;;23.67;18.90;;;;;;;13.98;100.00;102238.72;4903804;30;20037;-68
2021/09/03 00:46:34;;;;;;;20.98;18.25;;;;;;;13.93;100.00;102244.34;4904493;30;20028;-67
2021/09/03 00:49:05;;;;;;;24.58;17.67;;;;;;;13.87;100.00;102243.03;4904877;30;20382;-70
2021/09/03 00:51:38;;;;;;;22.65;18.73;;;;;;;13.88;100.00;102231.53;4903595;30;20041;-67
2021/09/03 00:54:10;;;;;;;22.27;17.60;;;;;;;13.81;100.00;102229.47;4904115;30;20455;-67
2021/09/03 00:56:41;;;;;;;25.20;18.77;;;;;;;13.81;100.00;102232.13;4904113;30;20045;-69
2021/09/03 00:59:13;;;;;;;26.73;18.15;;;;;;;13.78;100.00;102227.06;4903509;30;20037;-68
2021/09/03 01:01:44;;;;;;;25.48;18.80;;;;;;;13.79;100.00;102226.16;4904576;30;20041;-68
2021/09/03 01:04:15;;;;;;;21.80;18.30;;;;;;;13.80;100.00;102226.00;4904485;30;20168;-67
2021/09/03 01:06:47;;;;;;;23.88;19.60;;;;;;;13.81;100.00;102222.41;4903107;30;20045;-68
2021/09/03 01:09:18;;;;;;;23.92;19.98;;;;;;;13.81;100.00;102219.78;4903747;30;20033;-67
2021/09/03 01:11:50;;;;;;;24.00;19.05;;;;;;;13.79;100.00;102218.25;4904144;30;20052;-70
2021/09/03 01:14:23;;;;;;;26.05;19.83;;;;;;;13.83;100.00;102217.03;4903564;30;20628;-67
2021/09/03 01:16:54;;;;;;;26.83;21.17;;;;;;;13.81;100.00;102211.88;4904774;30;20029;-69
2021/09/03 01:19:25;;;;;;;23.92;19.20;;;;;;;13.85;100.00;102218.59;4904983;30;20040;-67
2021/09/03 01:21:57;;;;;;;22.35;18.88;;;;;;;13.81;100.00;102205.78;4906052;30;20433;-67
2021/09/03 01:24:28;;;;;;;24.83;19.73;;;;;;;13.77;100.00;102207.81;4907111;30;20436;-69
2021/09/03 01:26:59;;;;;;;24.35;19.27;;;;;;;13.81;100.00;102211.88;4907635;30;20393;-66
2021/09/03 01:29:31;;;;;;;24.23;19.48;;;;;;;13.77;100.00;102206.97;4906964;30;20403;-69
2021/09/03 01:32:02;;;;;;;22.60;18.85;;;;;;;13.80;100.00;102207.56;4907680;30;20568;-67
2021/09/03 01:34:33;;;;;;;22.20;19.33;;;;;;;13.80;100.00;102209.38;4906224;30;20043;-66
2021/09/03 01:37:05;;;;;;;25.33;19.45;;;;;;;13.75;100.00;102204.47;4907762;30;20072;-68
2021/09/03 01:39:37;;;;;;;24.83;19.85;;;;;;;13.78;100.00;102200.75;4905633;30;20071;-70
2021/09/03 01:42:08;;;;;;;27.35;20.45;;;;;;;13.72;100.00;102196.78;4908047;30;20492;-67
2021/09/03 01:44:40;;;;;;;23.80;19.23;;;;;;;13.68;100.00;102197.16;4907415;30;20041;-67
2021/09/03 01:47:11;;;;;;;27.02;19.42;;;;;;;13.67;100.00;102193.66;4906934;30;20416;-66
2021/09/03 01:49:43;;;;;;;24.95;19.63;;;;;;;13.65;100.00;102197.38;4907609;30;20093;-67
2021/09/03 01:52:14;;;;;;;23.05;18.27;;;;;;;13.61;100.00;102181.81;4907713;30;20080;-68
2021/09/03 01:54:45;;;;;;;25.70;19.55;;;;;;;13.66;100.00;102181.44;4906950;30;20037;-67
2021/09/03 01:57:16;;;;;;;23.35;19.20;;;;;;;13.62;100.00;102180.00;4907753;30;20076;-66
2021/09/03 01:59:48;;;;;;;23.75;19.70;;;;;;;13.56;100.00;102173.44;4907273;30;20076;-68
2021/09/03 02:02:19;;;;;;;26.33;19.60;;;;;;;13.60;100.00;102181.94;4905907;30;21009;-69
2021/09/03 02:04:50;;;;;;;25.75;19.35;;;;;;;13.58;100.00;102173.31;4905430;30;20492;-66
2021/09/03 02:07:22;;;;;;;23.63;20.23;;;;;;;13.58;100.00;102171.50;4905246;30;20025;-68
2021/09/03 02:09:53;;;;;;;26.23;20.27;;;;;;;13.57;100.00;102179.53;4904990;30;20024;-67
2021/09/03 02:12:24;;;;;;;26.38;20.63;;;;;;;13.52;100.00;102182.50;4908236;30;20424;-67
2021/09/03 02:14:56;;;;;;;21.73;19.27;;;;;;;13.51;100.00;102183.44;4906751;30;20029;-68
2021/09/03 02:17:27;;;;;;;21.67;19.00;;;;;;;13.54;100.00;102182.38;4907828;30;20510;-67
2021/09/03 02:19:58;;;;;;;21.90;19.33;;;;;;;13.57;100.00;102174.25;4905980;30;20385;-67
2021/09/03 02:22:30;;;;;;;23.02;19.15;;;;;;;13.53;100.00;102173.66;4904848;30;20408;-69
2021/09/03 02:25:01;;;;;;;24.00;20.05;;;;;;;13.51;100.00;102177.34;4907123;30;20033;-67
2021/09/03 02:27:33;;;;;;;31.90;20.17;;;;;;;13.53;100.00;102168.38;4905152;30;20102;-66
2021/09/03 02:30:06;;;;;;;23.50;19.83;;;;;;;13.52;100.00;102168.50;4907026;30;20040;-66
2021/09/03 02:32:37;;;;;;;;;;;;;;;13.80;100.00;102165.44;4906407;30;20523;-68
2021/09/03 02:35:09;;;;;;;22.60;18.93;;;;;;;13.48;100.00;102167.88;4905648;30;20693;-68
2021/09/03 02:37:40;;;;;;;24.27;18.92;;;;;;;13.42;100.00;102165.72;4905543;30;20041;-67
2021/09/03 02:40:11;;;;;;;23.35;20.42;;;;;;;13.42;100.00;102167.53;4906082;30;20044;-69
2021/09/03 02:42:43;;;;;;;24.02;19.52;;;;;;;13.39;100.00;102164.16;4906564;30;20068;-67
2021/09/03 02:45:14;;;;;;;25.58;19.83;;;;;;;13.36;100.00;102158.28;4906050;30;20116;-66
2021/09/03 02:47:45;;;;;;;21.15;18.67;;;;;;;13.35;100.00;102152.19;4904552;30;20041;-69
2021/09/03 02:50:17;;;;;;;26.27;20.15;;;;;;;13.36;100.00;102151.22;4907021;30;20455;-66
2021/09/03 02:52:48;;;;;;;24.85;19.40;;;;;;;13.34;100.00;102142.63;4905394;30;20122;-68
2021/09/03 02:55:20;;;;;;;22.73;19.52;;;;;;;13.32;100.00;102147.16;4905810;30;20068;-67
2021/09/03 02:57:51;;;;;;;26.73;21.67;;;;;;;13.32;100.00;102144.53;4905287;30;20470;-67
2021/09/03 03:00:23;;;;;;;25.13;19.23;;;;;;;13.25;100.00;102138.03;4906374;30;20029;-67
2021/09/03 03:02:54;;;;;;;29.92;20.75;;;;;;;13.26;100.00;102138.88;4906330;30;20071;-67
2021/09/03 03:05:26;;;;;;;25.35;20.67;;;;;;;13.23;100.00;102147.84;4903717;30;20036;-67
2021/09/03 03:07:57;;;;;;;21.17;18.90;;;;;;;13.20;100.00;102139.31;4906428;30;20071;-67
2021/09/03 03:10:28;;;;;;;24.48;21.05;;;;;;;13.20;100.00;102136.69;4906589;30;20454;-67
2021/09/03 03:13:06;;;;;;;25.17;19.70;;;;;;;13.13;100.00;102125.78;4901638;30;20412;-67
2021/09/03 03:15:37;;;;;;;26.60;21.25;;;;;;;13.07;100.00;102126.25;4905673;30;20068;-67
2021/09/03 03:18:08;;;;;;;31.25;21.73;;;;;;;13.09;100.00;102117.28;4906099;30;20033;-67
2021/09/03 03:20:41;;;;;;;24.17;20.48;;;;;;;13.09;100.00;102121.72;4906147;30;20041;-67
2021/09/03 03:23:13;;;;;;;26.45;20.40;;;;;;;13.12;100.00;102118.84;4906010;30;20067;-67
2021/09/03 03:25:45;;;;;;;22.73;19.02;;;;;;;13.11;100.00;102122.44;4905915;30;20029;-67
2021/09/03 03:28:16;;;;;;;24.80;20.52;;;;;;;13.03;100.00;102114.25;4905250;30;20112;-67
2021/09/03 03:30:47;;;;;;;27.20;21.15;;;;;;;13.02;100.00;102117.84;4905114;30;20455;-67
2021/09/03 03:33:19;;;;;;;23.35;19.55;;;;;;;13.01;100.00;102124.06;4906260;30;20392;-67
2021/09/03 03:35:50;;;;;;;24.35;19.63;;;;;;;12.95;100.00;102120.09;4905349;30;20110;-67
2021/09/03 03:38:21;;;;;;;25.17;19.63;;;;;;;12.93;100.00;102116.75;4905515;30;20493;-67
2021/09/03 03:40:53;;;;;;;23.08;19.50;;;;;;;12.89;100.00;102113.50;4904686;30;20044;-67
2021/09/03 03:43:24;;;;;;;26.33;20.58;;;;;;;12.83;100.00;102115.75;4904476;30;20065;-67
2021/09/03 03:45:55;;;;;;;24.88;18.98;;;;;;;12.78;100.00;102104.75;4905878;30;20029;-67
2021/09/03 03:48:26;;;;;;;25.15;19.60;;;;;;;12.73;100.00;102107.72;4904629;30;20073;-67
2021/09/03 03:50:58;;;;;;;24.38;19.38;;;;;;;12.74;100.00;102105.94;4904529;30;20469;-67
2021/09/03 03:53:29;;;;;;;24.65;19.38;;;;;;;12.66;100.00;102096.81;4903951;30;20029;-67
2021/09/03 03:56:00;;;;;;;26.20;20.23;;;;;;;12.69;100.00;102102.78;4906006;30;20117;-67
2021/09/03 03:58:32;;;;;;;22.15;19.10;;;;;;;12.69;100.00;102105.41;4903355;30;20112;-67
2021/09/03 04:01:03;;;;;;;22.33;19.35;;;;;;;12.61;100.00;102103.34;4903156;30;20534;-67
2021/09/03 04:03:35;;;;;;;27.00;19.98;;;;;;;12.59;100.00;102100.84;4905118;30;20035;-67
2021/09/03 04:06:06;;;;;;;20.77;18.05;;;;;;;12.57;100.00;102099.25;4903113;30;20095;-67
2021/09/03 04:08:38;;;;;;;26.33;19.98;;;;;;;12.59;100.00;102100.84;4904951;30;20029;-66
2021/09/03 04:11:09;;;;;;;23.58;18.67;;;;;;;12.51;100.00;102091.84;4905938;30;20419;-67
2021/09/03 04:13:40;;;;;;;23.10;19.42;;;;;;;12.49;100.00;102091.94;4903840;30;20039;-67
2021/09/03 04:16:12;;;;;;;22.33;18.15;;;;;;;12.48;100.00;102092.91;4904663;30;20040;-67
2021/09/03 04:18:43;;;;;;;24.60;19.25;;;;;;;12.40;100.00;102096.09;4903861;30;20048;-67
2021/09/03 04:21:14;;;;;;;23.80;19.40;;;;;;;12.46;100.00;102094.78;4905267;30;20040;-67
2021/09/03 04:23:45;;;;;;;22.95;18.75;;;;;;;12.41;100.00;102095.13;4903642;30;20037;-67
2021/09/03 04:26:17;;;;;;;22.92;17.98;;;;;;;12.36;100.00;102091.16;4904392;30;20033;-67
2021/09/03 04:28:48;;;;;;;22.00;18.63;;;;;;;12.34;100.00;102096.50;4903926;30;20714;-67
2021/09/03 04:31:19;;;;;;;25.35;19.30;;;;;;;12.30;100.00;102095.06;4905327;30;20029;-67
2021/09/03 04:33:50;;;;;;;22.15;18.52;;;;;;;12.30;100.00;102089.81;4904540;30;20040;-67
2021/09/03 04:36:22;;;;;;;22.13;19.08;;;;;;;12.29;100.00;102092.56;4901871;30;20040;-67
2021/09/03 04:38:53;;;;;;;23.90;20.13;;;;;;;12.20;100.00;102095.81;4904237;30;20674;-67
2021/09/03 04:41:24;;;;;;;23.23;18.95;;;;;;;12.21;100.00;102095.75;4904278;30;20037;-67
2021/09/03 04:43:56;;;;;;;22.25;19.20;;;;;;;12.20;100.00;102096.69;4903618;30;20407;-66
2021/09/03 04:46:27;;;;;;;25.33;20.10;;;;;;;12.17;100.00;102095.13;4905139;30;20527;-67
2021/09/03 04:48:58;;;;;;;27.77;21.63;;;;;;;12.17;100.00;102092.50;4904186;30;20032;-67
2021/09/03 04:51:30;;;;;;;26.98;20.60;;;;;;;12.21;100.00;102093.09;4903907;30;20044;-67
2021/09/03 04:54:01;;;;;;;25.15;19.38;;;;;;;12.18;100.00;102093.31;4904388;30;20032;-67
2021/09/03 04:56:32;;;;;;;25.05;20.92;;;;;;;12.22;100.00;102092.16;4907355;30;20029;-66
2021/09/03 04:59:03;;;;;;;26.10;23.08;;;;;;;12.19;100.00;102095.00;4908799;30;20036;-66
2021/09/03 05:01:35;;;;;;;27.45;22.48;;;;;;;12.23;100.00;102095.63;4907809;30;20106;-67
2021/09/03 05:04:06;;;;;;;29.75;23.52;;;;;;;12.27;100.00;102089.19;4907814;30;20054;-67
2021/09/03 05:06:37;;;;;;;27.45;21.13;;;;;;;12.22;100.00;102081.63;4907672;30;20041;-67
2021/09/03 05:09:09;;;;;;;28.83;21.95;;;;;;;12.22;100.00;102081.63;4907708;30;20491;-67
2021/09/03 05:11:40;;;;;;;29.35;23.20;;;;;;;12.24;100.00;102085.00;4905730;30;20433;-67
2021/09/03 05:14:11;;;;;;;27.80;21.77;;;;;;;12.26;100.00;102083.09;4908053;30;20433;-67
2021/09/03 05:16:42;;;;;;;27.08;22.33;;;;;;;12.20;100.00;102073.03;4907083;30;20040;-67
2021/09/03 05:19:14;;;;;;;27.85;22.65;;;;;;;12.20;100.00;102086.19;4907230;30;20033;-67
2021/09/03 05:21:45;;;;;;;25.98;22.15;;;;;;;12.20;100.00;102087.94;4905832;30;20553;-67
2021/09/03 05:24:16;;;;;;;28.23;23.05;;;;;;;12.21;100.00;102082.59;4907037;30;20036;-67
2021/09/03 05:26:48;;;;;;;27.35;23.38;;;;;;;12.17;100.00;102081.97;4906527;30;20402;-67
2021/09/03 05:29:19;;;;;;;30.60;23.38;;;;;;;12.17;100.00;102079.34;4907315;30;20079;-67
2021/09/03 05:31:50;;;;;;;27.50;22.83;;;;;;;12.15;100.00;102093.53;4906635;30;20037;-67
2021/09/03 05:34:21;;;;;;;27.30;23.13;;;;;;;12.21;100.00;102081.75;4906602;30;20063;-67
2021/09/03 05:36:53;;;;;;;27.67;23.13;;;;;;;12.32;100.00;102089.72;4907149;30;20032;-67
2021/09/03 05:39:24;;;;;;;26.25;23.05;;;;;;;12.29;100.00;102096.03;4907966;30;20034;-67
2021/09/03 05:41:55;;;;;;;25.52;21.40;;;;;;;12.40;100.00;102098.72;4904106;30;20060;-67
2021/09/03 05:44:27;;;;;;;31.13;23.63;;;;;;;12.34;100.00;102104.41;4907616;30;20073;-67
2021/09/03 05:46:58;;;;;;;28.30;24.90;;;;;;;12.37;100.00;102105.97;4906783;30;20029;-67
2021/09/03 05:49:29;;;;;;;31.35;25.83;;;;;;;12.39;100.00;102097.03;4905718;30;20124;-67
2021/09/03 05:52:00;;;;;;;31.52;25.73;;;;;;;12.47;100.00;102106.16;4907466;30;20021;-67
2021/09/03 05:54:32;;;;;;;32.78;26.05;;;;;;;12.51;100.00;102097.09;4906872;30;20033;-67
2021/09/03 05:57:05;;;;;;;31.52;26.25;;;;;;;12.54;100.00;102091.59;4902799;30;20045;-67
2021/09/03 05:59:36;;;;;;;33.10;27.38;;;;;;;12.60;100.00;102096.41;4905416;30;20068;-67
2021/09/03 06:02:08;;;;;;;34.28;26.52;;;;;;;12.65;100.00;102102.16;4906621;30;20156;-67
2021/09/03 06:04:39;;;;;;;32.05;26.38;;;;;;;12.72;100.00;102099.94;4906387;30;20043;-67
2021/09/03 06:07:10;;;;;;;36.45;28.70;;;;;;;12.71;100.00;102091.22;4906136;30;20797;-67
2021/09/03 06:09:42;;;;;;;33.72;27.90;;;;;;;12.80;100.00;102105.44;4906938;30;20033;-67
2021/09/03 06:12:13;;;;;;;34.45;28.98;;;;;;;12.82;100.00;102096.50;4906175;30;20132;-69
2021/09/03 06:14:44;;;;;;;36.25;29.35;;;;;;;12.88;100.00;102093.44;4898220;30;20144;-67
2021/09/03 06:17:17;;;;;;;38.92;31.40;;;;;;;12.94;100.00;102094.75;4899694;30;20575;-67
2021/09/03 06:19:49;;;;;;;38.90;31.95;;;;;;;13.01;100.00;102101.22;4900213;30;20041;-67
2021/09/03 06:22:20;;;;;;;40.03;32.25;;;;;;;13.05;100.00;102096.59;4906912;30;20549;-67
2021/09/03 06:24:51;;;;;;;39.67;33.33;;;;;;;13.12;100.00;102103.06;4904025;30;20063;-67
2021/09/03 06:27:23;;;;;;;39.53;32.42;;;;;;;13.14;100.00;102096.75;4904980;30;20033;-67
2021/09/03 06:29:54;;;;;;;43.58;34.00;;;;;;;13.21;100.00;102101.53;4906031;30;20029;-67
2021/09/03 06:32:27;;;;;;;40.63;33.75;;;;;;;13.25;100.00;102098.56;4900699;30;20064;-67
2021/09/03 06:35:01;;;;;;;45.50;34.55;;;;;;;13.30;100.00;102099.06;4902612;30;20123;-67
2021/09/03 06:37:33;;;;;;;43.42;35.97;;;;;;;13.31;100.00;102100.75;4902606;30;20037;-67
2021/09/03 06:40:05;;;;;;;40.33;34.08;;;;;;;13.38;100.00;102099.31;4905108;30;20047;-67
2021/09/03 06:42:36;;;;;;;43.07;33.27;;;;;;;13.43;100.00;102104.22;4901639;30;20052;-66
2021/09/03 06:45:09;;;;;;;40.33;32.95;;;;;;;13.46;100.00;102106.63;4906254;30;20032;-67
2021/09/03 06:47:40;;;;;;;37.70;31.35;;;;;;;13.54;100.00;102100.78;4892656;30;20128;-66
2021/09/03 06:50:12;;;;;;;41.75;34.13;;;;;;;13.59;100.00;102099.44;4905491;30;20033;-66
2021/09/03 06:52:43;;;;;;;42.28;32.78;;;;;;;13.65;100.00;102097.31;4905591;30;20032;-67
2021/09/03 06:55:15;;;;;;;41.53;33.28;;;;;;;13.75;100.00;102106.16;4906009;30;20083;-67
2021/09/03 06:57:47;;;;;;;41.88;34.72;;;;;;;13.79;100.00;102107.63;4894066;30;20032;-67
2021/09/03 07:00:18;;;;;;;41.03;35.28;;;;;;;13.84;100.00;102106.28;4902972;30;20036;-67
2021/09/03 07:02:49;;;;;;;39.72;35.08;;;;;;;13.90;100.00;102115.47;4903497;30;20489;-67
2021/09/03 07:05:21;;;;;;;41.53;33.55;;;;;;;13.96;100.00;102111.53;4897916;30;20119;-67
2021/09/03 07:07:52;;;;;;;40.03;34.97;;;;;;;14.01;100.00;102107.56;4893803;30;20037;-67
2021/09/03 07:10:23;;;;;;;46.00;35.63;;;;;;;14.09;100.00;102102.56;4904470;30;20035;-67
2021/09/03 07:12:55;;;;;;;41.17;35.35;;;;;;;14.14;100.00;102109.25;4902701;30;20429;-67
2021/09/03 07:15:29;;;;;;;41.30;35.13;;;;;;;14.23;100.00;102106.69;4899023;30;20040;-67
2021/09/03 07:18:00;;;;;;;42.97;37.10;;;;;;;14.30;100.00;102112.31;4895468;30;20172;-67
2021/09/03 07:20:31;;;;;;;42.95;35.95;;;;;;;14.38;100.00;102098.53;4903540;30;20029;-68
2021/09/03 07:23:02;;;;;;;42.65;34.85;;;;;;;14.43;100.00;102098.97;4903918;30;20041;-67
2021/09/03 07:25:34;;;;;;;41.67;35.35;;;;;;;14.49;100.00;102099.34;4898284;30;20048;-67
2021/09/03 07:28:05;;;;;;;46.25;38.95;;;;;;;14.58;100.00;102100.41;4894796;30;20083;-66
2021/09/03 07:30:36;;;;;;;46.33;39.20;;;;;;;14.69;100.00;102095.06;4902692;30;20056;-67
2021/09/03 07:33:08;;;;;;;42.95;36.80;;;;;;;14.72;100.00;102094.84;4902332;30;20044;-67
2021/09/03 07:35:39;;;;;;;42.92;36.95;;;;;;;14.81;100.00;102101.13;4896418;30;20543;-67
2021/09/03 07:38:11;;;;;;;45.25;37.30;;;;;;;14.92;100.00;102106.38;4897162;30;20048;-67
2021/09/03 07:40:42;;;;;;;44.15;37.05;;;;;;;14.99;100.00;102104.06;4903174;30;20044;-67
2021/09/03 07:43:15;;;;;;;42.47;37.80;;;;;;;15.05;100.00;102106.19;4903745;30;20143;-67
2021/09/03 07:45:47;;;;;;;45.65;37.55;;;;;;;15.13;100.00;102103.75;4895069;30;20763;-67
2021/09/03 07:48:18;;;;;;;43.58;36.83;;;;;;;15.23;100.00;102106.47;4897076;30;20041;-67
2021/09/03 07:50:50;;;;;;;46.03;37.03;;;;;;;15.27;100.00;102102.59;4901692;30;20519;-67
2021/09/03 07:53:21;;;;;;;40.70;36.28;;;;;;;15.38;100.00;102104.31;4903094;30;20528;-67
2021/09/03 07:55:52;;;;;;;44.67;37.15;;;;;;;15.44;100.00;102093.22;4895409;30;20029;-67
2021/09/03 07:58:24;;;;;;;38.75;34.58;;;;;;;15.54;100.00;102094.94;4892152;30;20052;-67
2021/09/03 08:00:55;;;;;;;41.42;36.45;;;;;;;15.63;100.00;102092.47;4896274;30;20091;-67
2021/09/03 08:03:27;;;;;;;40.08;35.47;;;;;;;15.70;100.00;102093.66;4901247;30;20039;-67
2021/09/03 08:05:58;;;;;;;39.58;35.05;;;;;;;15.85;100.00;102081.75;4894488;30;20040;-67
2021/09/03 08:08:30;;;;;;;41.50;34.03;;;;;;;15.93;100.00;102081.06;4893634;30;20030;-67
2021/09/03 08:11:02;;;;;;;39.55;35.10;;;;;;;16.08;100.00;102081.53;4898808;30;20033;-67
2021/09/03 08:13:33;;;;;;;37.55;33.55;;;;;;;16.25;100.00;102076.44;4903293;30;20036;-66
2021/09/03 08:16:04;;;;;;;36.33;32.53;;;;;;;16.32;100.00;102076.69;4899866;30;20086;-66
2021/09/03 08:18:36;;;;;;;36.55;32.55;;;;;;;16.41;100.00;102086.47;4893393;30;20037;-66
2021/09/03 08:21:07;;;;;;;38.05;33.30;;;;;;;16.57;100.00;102082.44;4896733;30;20100;-67
2021/09/03 08:23:38;;;;;;;39.50;33.40;;;;;;;16.62;100.00;102075.72;4897545;30;20072;-67
2021/09/03 08:26:09;;;;;;;38.17;33.55;;;;;;;16.80;100.00;102075.06;4891643;30;20397;-66
2021/09/03 08:28:41;;;;;;;37.38;33.22;;;;;;;16.89;100.00;102076.84;4895431;30;20095;-67
2021/09/03 08:31:12;;;;;;;35.63;31.83;;;;;;;16.92;100.00;102077.41;4896558;30;20069;-67
2021/09/03 08:33:44;;;;;;;35.20;30.65;;;;;;;17.04;100.00;102072.78;4904199;30;20064;-66
2021/09/03 08:36:16;;;;;;;35.10;31.30;;;;;;;17.22;100.00;102068.44;4897078;30;20164;-68
2021/09/03 08:38:47;;;;;;;40.65;31.08;;;;;;;17.29;100.00;102075.81;4897448;30;20111;-67
2021/09/03 08:41:20;;;;;;;39.65;32.90;;;;;;;17.51;100.00;102072.81;4894896;30;20449;-67
2021/09/03 08:43:57;;;;;;;33.73;30.17;;;;;;;17.64;100.00;102081.25;4901905;30;20115;-67
2021/09/03 08:46:32;;;;;;;35.60;30.70;;;;;;;17.69;100.00;102072.84;4902101;30;20040;-67
2021/09/03 08:49:05;;;;;;;35.83;30.08;;;;;;;17.81;100.00;102078.84;4901832;30;20101;-67
2021/09/03 08:51:37;;;;;;;32.95;29.38;;;;;;;18.03;100.00;102080.25;4907385;30;20033;-67
2021/09/03 08:54:08;;;;;;;32.53;29.02;;;;;;;18.09;100.00;102083.16;4903737;30;20029;-67
2021/09/03 08:56:39;;;;;;;35.80;30.58;;;;;;;18.27;100.00;102080.53;4901624;30;20052;-67
2021/09/03 08:59:10;;;;;;;31.65;27.08;;;;;;;18.43;100.00;102087.81;4902816;30;20099;-67
2021/09/03 09:01:42;;;;;;;32.72;29.10;;;;;;;18.56;100.00;102088.28;4905443;30;20041;-67
2021/09/03 09:04:15;;;;;;;33.13;29.48;;;;;;;18.69;100.00;102083.41;4903339;30;20098;-67
2021/09/03 09:07:02;;;;;;;32.10;28.60;;;;;;;18.88;100.00;102090.38;4907708;30;20445;-68
2021/09/03 09:09:39;;;;;;;33.55;29.20;;;;;;;18.85;100.00;102084.56;4896753;30;20036;-68
2021/09/03 09:12:13;;;;;;;31.50;28.13;;;;;;;19.01;100.00;102084.66;4895782;30;20318;-68
2021/09/03 09:15:00;;;;;;;30.45;27.23;;;;;;;19.19;100.00;102088.09;4900989;30;20036;-67
2021/09/03 09:17:35;;;;;;;30.02;26.90;;;;;;;19.32;100.00;102086.84;4905295;30;20512;-66
2021/09/03 09:20:19;;;;;;;30.70;27.48;;;;;;;19.47;100.00;102089.75;4897800;30;20112;-68
2021/09/03 09:23:00;;;;;;;28.75;25.73;;;;;;;19.56;100.00;102086.16;4902457;30;20075;-67
2021/09/03 09:25:37;;;;;;;33.13;27.30;;;;;;;19.65;100.00;102087.88;4915860;30;20041;-67
2021/09/03 09:28:21;;;;;;;28.67;25.58;;;;;;;19.84;100.00;102084.97;4896735;30;20037;-67
2021/09/03 09:30:52;;;;;;;29.35;26.25;;;;;;;19.99;100.00;102076.38;4907168;30;20064;-68
2021/09/03 09:33:24;;;;;;;29.63;26.63;;;;;;;20.10;100.00;102073.41;4906099;30;20150;-66
2021/09/03 09:35:58;;;;;;;28.60;25.47;;;;;;;20.20;100.00;102067.97;4897861;30;20041;-67
2021/09/03 09:38:32;;;;;;;29.17;25.23;;;;;;;20.30;100.00;102069.47;4902063;30;20044;-67
2021/09/03 09:41:09;;;;;;;29.33;26.13;;;;;;;20.38;100.00;102069.50;4907222;30;20120;-67
2021/09/03 09:43:43;;;;;;;27.42;23.75;;;;;;;20.43;100.00;102071.66;4900169;30;20091;-67
2021/09/03 09:46:22;;;;;;;25.45;22.75;;;;;;;20.61;100.00;102060.88;4899107;30;20037;-68
2021/09/03 09:48:57;;;;;;;28.55;23.98;;;;;;;20.65;100.00;102063.03;4897009;30;20043;-67
2021/09/03 09:51:38;;;;;;;25.23;22.65;;;;;;;20.71;100.00;102063.38;4897065;30;20076;-67
2021/09/03 09:54:15;;;;;;;26.50;23.73;;;;;;;20.86;100.00;102054.53;4895789;30;20041;-67
2021/09/03 09:56:58;;;;;;;24.63;22.02;;;;;;;21.07;100.00;102054.00;4898410;30;20397;-67
2021/09/03 09:59:32;;;;;;;27.20;22.20;;;;;;;21.15;100.00;102053.16;4897108;30;20040;-67
2021/09/03 10:02:05;;;;;;;26.17;21.92;;;;;;;21.24;100.00;102060.13;4895920;30;20124;-67
2021/09/03 10:04:36;;;;;;;;;;;;;;;21.59;100.00;102058.88;4897489;30;20508;-67
2021/09/03 10:07:08;;;;;;;25.67;21.17;;;;;;;21.31;100.00;102054.94;4899213;30;19923;-67
2021/09/03 10:09:39;;;;;;;24.80;22.17;;;;;;;21.42;100.00;102057.25;4895357;30;20079;-67
2021/09/03 10:12:11;;;;;;;29.40;22.27;;;;;;;21.60;100.00;102054.38;4898857;30;20033;-67
2021/09/03 10:14:43;;;;;;;22.52;20.08;;;;;;;21.67;100.00;102049.16;4894404;30;20026;-68
2021/09/03 10:17:15;;;;;;;25.00;22.20;;;;;;;21.79;100.00;102039.78;4895870;30;20402;-67
2021/09/03 10:19:50;;;;;;;23.67;20.85;;;;;;;22.00;100.00;102042.63;4895805;30;20055;-68
2021/09/03 10:22:21;;;;;;;26.05;20.65;;;;;;;22.03;100.00;102044.97;4896265;30;20029;-68
2021/09/03 10:25:10;;;;;;;22.73;20.03;;;;;;;22.17;100.00;102032.75;4898025;30;20044;-69
2021/09/03 10:28:07;;;;;;;21.45;19.15;;;;;;;22.37;100.00;102038.41;4895950;30;20030;-67
2021/09/03 10:30:38;;;;;;;23.08;19.88;;;;;;;22.35;100.00;102029.78;4903272;30;20029;-67
2021/09/03 10:33:11;;;;;;;24.03;20.93;;;;;;;22.28;100.00;102031.50;4903092;30;20044;-67
2021/09/03 10:35:43;;;;;;;21.75;19.23;;;;;;;22.57;100.00;102026.22;4904587;30;20389;-67
2021/09/03 10:38:31;;;;;;;24.23;21.27;;;;;;;22.69;100.00;102020.44;4898431;30;20030;-67
2021/09/03 10:41:04;;;;;;;22.25;18.45;;;;;;;22.75;100.00;102023.22;4899437;30;20118;-68
2021/09/03 10:43:42;;;;;;;21.58;19.25;;;;;;;22.85;100.00;102022.16;4897215;30;20058;-67
2021/09/03 10:46:15;;;;;;;21.42;19.08;;;;;;;22.93;100.00;102022.09;4899422;30;20033;-67
2021/09/03 10:48:50;;;;;;;20.50;17.50;;;;;;;22.97;98.66;102021.53;4901248;30;20393;-67
2021/09/03 10:51:36;;;;;;;22.63;19.52;;;;;;;22.99;100.00;102016.00;4907660;30;20493;-67
2021/09/03 10:54:17;;;;;;;19.10;17.10;;;;;;;23.08;99.94;102012.25;4907418;30;20617;-67
2021/09/03 10:56:56;;;;;;;18.85;16.80;;;;;;;23.19;99.16;102005.59;4907103;30;20032;-68
2021/09/03 10:59:28;;;;;;;19.38;15.30;;;;;;;23.33;96.36;101998.56;4904401;30;20040;-67
2021/09/03 11:02:00;;;;;;;17.10;15.17;;;;;;;23.34;94.26;102002.91;4909653;30;20092;-67
2021/09/03 11:04:44;;;;;;;18.98;14.55;;;;;;;23.53;97.99;101995.13;4910495;30;20021;-67
2021/09/03 11:07:16;;;;;;;17.65;15.43;;;;;;;23.36;95.46;101995.53;4906261;30;20122;-67
2021/09/03 11:09:47;;;;;;;15.90;14.30;;;;;;;23.47;96.76;101985.19;4898715;30;20061;-67
2021/09/03 11:12:22;;;;;;;16.50;14.53;;;;;;;23.56;94.18;101988.56;4900865;30;20131;-68
2021/09/03 11:14:55;;;;;;;16.33;14.63;;;;;;;23.64;93.27;101969.75;4905011;30;20084;-68
2021/09/03 11:17:26;;;;;;;;;;;;;;;23.96;92.98;101978.31;4897886;30;20029;-67
2021/09/03 11:20:00;;;;;;;17.63;13.13;;;;;;;23.66;92.31;101973.06;4900360;30;19923;-68
2021/09/03 11:22:32;;;;;;;15.52;13.77;;;;;;;23.61;91.97;101963.94;4899242;30;20041;-67
2021/09/03 11:25:06;;;;;;;15.65;14.00;;;;;;;23.75;93.16;101963.94;4899290;30;20094;-68